Time;durP1;ratioP1;P1;durP2;ratioP2;P2;SDS_P1;SDS_P2;PMS_P1;PMS_P2;Temp;Humidity;BMP_temperature;BMP_pressure;BME280_temperature;BME280_humidity;BME280_pressure;Samples;Min_cycle;Max_cycle;Signal;HPM_P1;HPM_P2
2022/07/09 00:01:52;;;;;;;;;;;;;;;16.98;66.59;102346.38;5005038;28;20004;-79
2022/07/09 00:04:17;;;;;;;;;;;;;;;16.99;66.55;102348.09;5005296;28;19961;-79
2022/07/09 00:06:43;;;;;;;;;;;;;;;16.99;66.39;102353.34;5004012;28;20381;-79
2022/07/09 00:09:08;;;;;;;;;;;;;;;16.96;66.25;102351.66;4985507;28;19925;-79
2022/07/09 00:11:33;;;;;;;;;;;;;;;16.99;66.25;102346.34;5003828;28;19936;-78
2022/07/09 00:13:58;;;;;;;;;;;;;;;16.90;67.00;102346.56;5005104;28;20042;-76
2022/07/09 00:16:24;;;;;;;;;;;;;;;16.91;66.63;102348.25;5002632;28;19957;-81
2022/07/09 00:18:49;;;;;;;;;;;;;;;16.88;66.43;102343.06;4999934;28;19922;-82
2022/07/09 00:21:14;;;;;;;;;;;;;;;16.87;66.87;102348.38;5001652;28;19964;-81
2022/07/09 00:23:40;;;;;;;;;;;;;;;16.87;66.84;102346.63;5001529;28;19976;-81
2022/07/09 00:26:05;;;;;;;;;;;;;;;16.92;66.75;102339.50;5003585;28;19951;-82
2022/07/09 00:28:30;;;;;;;;;;;;;;;16.88;66.92;102340.44;5004708;28;19926;-81
2022/07/09 00:30:56;;;;;;;;;;;;;;;16.86;66.86;102346.63;5002133;28;19936;-77
2022/07/09 00:33:21;;;;;;;;;;;;;;;16.84;67.11;102338.81;5003240;28;19926;-77
2022/07/09 00:35:46;;;;;;;;;;;;;;;16.85;66.79;102340.50;5004482;28;19933;-76
2022/07/09 00:38:12;;;;;;;;;;;;;;;16.84;67.14;102337.94;5004134;28;19992;-78
2022/07/09 00:40:37;;;;;;;;;;;;;;;16.83;67.40;102334.44;5004085;28;19925;-78
2022/07/09 00:43:02;;;;;;;;;;;;;;;16.83;67.08;102334.44;5010506;28;20027;-78
2022/07/09 00:45:28;;;;;;;;;;;;;;;16.81;67.21;102333.63;5006412;28;20479;-78
2022/07/09 00:47:53;;;;;;;;;;;;;;;16.82;67.16;102327.47;5011830;28;19918;-78
2022/07/09 00:50:18;;;;;;;;;;;;;;;16.82;66.93;102323.97;5008289;28;19929;-78
2022/07/09 00:52:44;;;;;;;;;;;;;;;16.72;67.42;102325.94;5007527;28;19936;-77
2022/07/09 00:55:09;;;;;;;;;;;;;;;16.74;67.11;102325.91;5009694;28;20315;-77
2022/07/09 00:57:35;;;;;;;;;;;;;;;16.72;67.34;102322.47;5010550;28;19944;-78
2022/07/09 01:00:00;;;;;;;;;;;;;;;16.75;67.22;102323.25;5006320;28;19925;-79
2022/07/09 01:02:26;;;;;;;;;;;;;;;16.74;67.16;102323.28;5007805;28;19930;-77
2022/07/09 01:04:51;;;;;;;;;;;;;;;16.78;66.82;102319.72;5005176;28;19931;-76
2022/07/09 01:07:17;;;;;;;;;;;;;;;16.71;66.82;102315.47;5005098;28;20032;-77
2022/07/09 01:09:42;;;;;;;;;;;;;;;16.72;67.10;102318.09;5008103;28;20656;-77
2022/07/09 01:12:07;;;;;;;;;;;;;;;16.67;67.04;102314.63;5008944;28;19960;-78
2022/07/09 01:14:33;;;;;;;;;;;;;;;16.73;66.71;102313.69;5006512;28;19929;-81
2022/07/09 01:17:02;;;;;;;;;;;;;;;16.66;66.80;102309.44;5003642;28;19930;-81
2022/07/09 01:19:28;;;;;;;;;;;;;;;16.71;66.71;102313.72;5005434;28;19967;-81
2022/07/09 01:21:53;;;;;;;;;;;;;;;16.62;67.26;102310.41;5005085;28;19965;-81
2022/07/09 01:24:18;;;;;;;;;;;;;;;16.63;67.12;102305.13;4987249;28;19980;-82
2022/07/09 01:26:44;;;;;;;;;;;;;;;16.64;66.85;102306.00;4987244;28;19936;-78
2022/07/09 01:29:10;;;;;;;;;;;;;;;16.65;66.93;102303.31;4997839;28;19921;-78
2022/07/09 01:31:35;;;;;;;;;;;;;;;16.63;67.28;102305.13;5007945;28;19951;-78
2022/07/09 01:34:01;;;;;;;;;;;;;;;16.62;67.32;102303.38;5006943;28;20347;-78
2022/07/09 01:36:26;;;;;;;;;;;;;;;16.57;67.55;102305.25;5008593;28;19971;-78
2022/07/09 01:38:51;;;;;;;;;;;;;;;16.64;67.11;102301.59;5004867;28;19925;-78
2022/07/09 01:41:17;;;;;;;;;;;;;;;16.49;67.38;102300.16;5008938;28;19925;-77
2022/07/09 01:43:42;;;;;;;;;;;;;;;16.63;67.00;102301.63;5005587;28;19921;-78
2022/07/09 01:46:07;;;;;;;;;;;;;;;16.58;67.24;102295.63;5008029;28;19934;-78
2022/07/09 01:48:34;;;;;;;;;;;;;;;16.51;67.59;102295.75;5004662;28;19913;-77
2022/07/09 01:50:59;;;;;;;;;;;;;;;16.54;67.38;102292.22;5005455;28;20665;-78
2022/07/09 01:53:24;;;;;;;;;;;;;;;16.54;67.45;102292.22;5007544;28;19925;-77
2022/07/09 01:55:49;;;;;;;;;;;;;;;16.58;67.07;102296.47;5006995;28;19930;-78
2022/07/09 01:58:15;;;;;;;;;;;;;;;16.51;67.52;102290.53;5002739;28;20389;-79
2022/07/09 02:00:40;;;;;;;;;;;;;;;16.50;67.52;102295.78;5005843;28;20365;-79
2022/07/09 02:03:06;;;;;;;;;;;;;;;16.49;67.30;102291.44;5004676;28;19925;-81
2022/07/09 02:05:31;;;;;;;;;;;;;;;16.50;67.34;102283.53;5004066;28;20009;-81
2022/07/09 02:07:56;;;;;;;;;;;;;;;16.46;67.49;102286.28;5003477;28;19933;-81
2022/07/09 02:10:21;;;;;;;;;;;;;;;16.50;67.01;102282.66;5002334;28;19926;-79
2022/07/09 02:12:47;;;;;;;;;;;;;;;16.51;67.35;102280.03;5007072;28;20343;-78
2022/07/09 02:15:12;;;;;;;;;;;;;;;16.50;67.29;102280.03;5004800;28;19921;-78
2022/07/09 02:17:38;;;;;;;;;;;;;;;16.45;67.26;102276.66;5004693;28;19964;-78
2022/07/09 02:20:04;;;;;;;;;;;;;;;16.50;66.73;102272.16;5004342;28;20004;-76
2022/07/09 02:22:29;;;;;;;;;;;;;;;16.44;67.36;102274.94;5005477;28;19925;-78
2022/07/09 02:24:54;;;;;;;;;;;;;;;16.40;67.63;102268.88;5005381;28;20376;-78
2022/07/09 02:27:20;;;;;;;;;;;;;;;16.41;67.54;102269.75;5005427;28;19922;-78
2022/07/09 02:29:45;;;;;;;;;;;;;;;16.34;67.71;102266.38;5007127;28;20419;-79
2022/07/09 02:32:10;;;;;;;;;;;;;;;16.35;67.68;102267.25;5004495;28;19925;-78
2022/07/09 02:34:37;;;;;;;;;;;;;;;16.39;67.67;102259.31;5005436;28;19940;-78
2022/07/09 02:37:03;;;;;;;;;;;;;;;16.36;67.82;102263.75;5005688;28;19928;-78
2022/07/09 02:39:28;;;;;;;;;;;;;;;16.36;67.43;102263.75;5007497;28;19917;-82
2022/07/09 02:41:53;;;;;;;;;;;;;;;16.36;67.40;102264.63;5005243;28;19922;-76
2022/07/09 02:44:19;;;;;;;;;;;;;;;16.35;67.44;102256.75;5007823;28;20388;-76
2022/07/09 02:46:44;;;;;;;;;;;;;;;16.34;67.52;102252.44;5006950;28;19925;-81
2022/07/09 02:49:10;;;;;;;;;;;;;;;16.36;67.41;102253.25;5003516;28;19948;-81
2022/07/09 02:51:35;;;;;;;;;;;;;;;16.33;67.75;102261.19;5005119;28;19932;-78
2022/07/09 02:54:01;;;;;;;;;;;;;;;16.38;67.50;102257.56;5013476;28;19952;-77
2022/07/09 02:56:26;;;;;;;;;;;;;;;16.33;67.56;102255.94;4993887;28;19925;-76
2022/07/09 02:58:51;;;;;;;;;;;;;;;16.31;67.48;102263.81;4980420;28;19922;-76
2022/07/09 03:01:16;;;;;;;;;;;;;;;16.28;67.84;102263.91;4983033;28;19926;-81
2022/07/09 03:03:42;;;;;;;;;;;;;;;16.33;67.18;102259.44;4980022;28;20010;-81
2022/07/09 03:06:08;;;;;;;;;;;;;;;16.27;67.39;102256.06;4984331;28;19949;-81
2022/07/09 03:08:33;;;;;;;;;;;;;;;16.21;66.97;102256.19;4981009;28;19922;-81
2022/07/09 03:10:59;;;;;;;;;;;;;;;16.25;67.09;102250.88;4986451;28;20385;-79
2022/07/09 03:13:24;;;;;;;;;;;;;;;16.29;67.01;102251.63;4990509;28;20028;-79
2022/07/09 03:15:49;;;;;;;;;;;;;;;16.22;66.90;102250.94;5002501;28;19929;-77
2022/07/09 03:18:15;;;;;;;;;;;;;;;16.18;67.46;102251.88;4983225;28;20455;-76
2022/07/09 03:20:40;;;;;;;;;;;;;;;16.23;67.28;102255.25;5000614;28;20434;-81
2022/07/09 03:23:05;;;;;;;;;;;;;;;16.28;67.14;102252.56;5001800;28;20028;-81
2022/07/09 03:25:31;;;;;;;;;;;;;;;16.27;66.80;102256.94;5004977;28;19933;-79
2022/07/09 03:27:56;;;;;;;;;;;;;;;16.26;67.40;102251.72;5002482;28;20501;-79
2022/07/09 03:30:23;;;;;;;;;;;;;;;16.29;67.50;102255.13;5004264;28;19922;-78
2022/07/09 03:32:48;;;;;;;;;;;;;;;16.34;67.50;102250.66;5005096;28;20012;-78
2022/07/09 03:35:13;;;;;;;;;;;;;;;16.37;66.99;102247.97;5004872;28;20012;-78
2022/07/09 03:37:39;;;;;;;;;;;;;;;16.42;67.03;102245.25;5004740;28;19930;-78
2022/07/09 03:40:05;;;;;;;;;;;;;;;16.39;67.42;102250.56;5005454;28;20018;-77
2022/07/09 03:42:30;;;;;;;;;;;;;;;16.45;67.38;102251.31;5004456;28;19939;-81
2022/07/09 03:44:55;;;;;;;;;;;;;;;16.44;67.41;102246.06;5002514;28;19929;-82
2022/07/09 03:47:21;;;;;;;;;;;;;;;16.43;67.54;102252.25;5003287;28;20448;-77
2022/07/09 03:49:46;;;;;;;;;;;;;;;16.42;67.43;102248.75;5001885;28;19921;-76
2022/07/09 03:52:12;;;;;;;;;;;;;;;16.44;67.63;102252.19;5003291;28;19971;-82
2022/07/09 03:54:37;;;;;;;;;;;;;;;16.48;67.38;102259.09;5004584;28;19953;-82
2022/07/09 03:57:02;;;;;;;;;;;;;;;16.48;67.96;102253.00;4992288;28;20082;-82
2022/07/09 03:59:28;;;;;;;;;;;;;;;16.40;67.77;102253.13;4989453;28;20005;-81
2022/07/09 04:01:53;;;;;;;;;;;;;;;16.47;67.35;102256.50;4991250;28;19984;-78
2022/07/09 04:04:18;;;;;;;;;;;;;;;16.45;67.82;102253.94;4998991;28;19965;-78
2022/07/09 04:06:44;;;;;;;;;;;;;;;16.46;67.57;102244.31;5005506;28;19934;-78
2022/07/09 04:09:09;;;;;;;;;;;;;;;16.47;67.62;102252.13;4984378;28;19977;-78
2022/07/09 04:11:35;;;;;;;;;;;;;;;16.52;67.25;102249.41;4987921;28;20024;-79
2022/07/09 04:14:00;;;;;;;;;;;;;;;16.47;67.27;102249.50;4990135;28;19991;-81
2022/07/09 04:16:26;;;;;;;;;;;;;;;16.56;67.48;102248.44;4990199;28;19933;-81
2022/07/09 04:18:52;;;;;;;;;;;;;;;16.55;67.23;102248.47;4990206;28;19925;-81
2022/07/09 04:21:17;;;;;;;;;;;;;;;16.52;67.18;102247.63;4988567;28;20344;-81
2022/07/09 04:23:42;;;;;;;;;;;;;;;16.51;67.70;102247.69;4986549;28;20015;-81
2022/07/09 04:26:08;;;;;;;;;;;;;;;16.55;67.53;102253.72;4997212;28;19965;-81
2022/07/09 04:28:35;;;;;;;;;;;;;;;16.53;67.07;102251.13;4999115;28;19926;-81
2022/07/09 04:31:01;;;;;;;;;;;;;;;16.55;66.58;102249.31;4989921;28;19929;-78
2022/07/09 04:33:26;;;;;;;;;;;;;;;16.57;66.86;102252.78;4990318;28;19922;-78
2022/07/09 04:35:52;;;;;;;;;;;;;;;16.59;67.08;102253.59;5009126;28;19929;-78
2022/07/09 04:38:17;;;;;;;;;;;;;;;16.56;66.80;102256.28;5005312;28;19926;-79
2022/07/09 04:40:42;;;;;;;;;;;;;;;16.61;65.80;102251.81;5009699;28;19925;-79
2022/07/09 04:43:07;;;;;;;;;;;;;;;16.66;66.02;102254.34;5007796;28;19926;-79
2022/07/09 04:45:34;;;;;;;;;;;;;;;16.52;66.00;102255.50;5010033;28;19976;-79
2022/07/09 04:47:59;;;;;;;;;;;;;;;16.65;65.76;102256.09;5025261;28;20308;-78
2022/07/09 04:50:25;;;;;;;;;;;;;;;16.68;65.53;102260.41;5009730;28;19930;-78
2022/07/09 04:52:51;;;;;;;;;;;;;;;16.72;65.11;102262.09;5005457;28;20156;-78
2022/07/09 04:55:16;;;;;;;;;;;;;;;16.71;65.54;102263.88;5004493;28;20328;-78
2022/07/09 04:57:42;;;;;;;;;;;;;;;16.73;65.78;102271.72;5006560;28;20019;-78
2022/07/09 05:00:08;;;;;;;;;;;;;;;16.76;65.62;102267.22;5007821;28;20369;-77
2022/07/09 05:02:33;;;;;;;;;;;;;;;16.75;65.61;102268.16;5006997;28;19922;-77
2022/07/09 05:04:58;;;;;;;;;;;;;;;16.76;65.30;102269.03;5008435;28;19979;-78
2022/07/09 05:07:24;;;;;;;;;;;;;;;16.78;65.37;102261.97;5006351;28;19926;-77
2022/07/09 05:09:49;;;;;;;;;;;;;;;16.74;66.12;102271.66;5004410;28;19926;-78
2022/07/09 05:12:14;;;;;;;;;;;;;;;16.82;65.22;102271.47;5009356;28;20012;-78
2022/07/09 05:14:40;;;;;;;;;;;;;;;16.80;65.29;102262.78;5007346;28;19928;-79
2022/07/09 05:17:06;;;;;;;;;;;;;;;16.70;65.33;102263.91;5002557;28;19929;-78
2022/07/09 05:19:31;;;;;;;;;;;;;;;16.82;65.38;102269.72;5003961;28;19922;-78
2022/07/09 05:21:57;;;;;;;;;;;;;;;16.76;65.46;102269.03;5005761;28;20365;-81
2022/07/09 05:24:22;;;;;;;;;;;;;;;16.77;65.53;102273.34;5003097;28;19922;-77
2022/07/09 05:26:48;;;;;;;;;;;;;;;16.83;65.22;102263.59;5007468;28;19932;-76
2022/07/09 05:29:13;;;;;;;;;;;;;;;16.63;66.21;102271.03;5006197;28;19930;-76
2022/07/09 05:31:38;;;;;;;;;;;;;;;16.79;65.92;102269.78;5006964;28;19925;-76
2022/07/09 05:34:05;;;;;;;;;;;;;;;16.81;65.37;102264.53;5008772;28;19929;-78
2022/07/09 05:36:30;;;;;;;;;;;;;;;16.78;65.70;102261.97;5007573;28;19965;-81
2022/07/09 05:38:56;;;;;;;;;;;;;;;16.82;65.90;102269.72;5005814;28;19973;-81
2022/07/09 05:41:22;;;;;;;;;;;;;;;16.64;65.75;102264.84;5002760;28;19930;-79
2022/07/09 05:43:47;;;;;;;;;;;;;;;16.85;65.75;102264.41;5005526;28;19937;-79
2022/07/09 05:46:13;;;;;;;;;;;;;;;16.84;65.33;102265.31;5004393;28;19934;-76
2022/07/09 05:48:38;;;;;;;;;;;;;;;16.86;66.01;102263.50;5007046;28;19985;-77
2022/07/09 05:51:03;;;;;;;;;;;;;;;16.82;66.29;102264.47;5007251;28;19925;-77
2022/07/09 05:53:29;;;;;;;;;;;;;;;16.84;66.12;102267.06;4990066;28;19926;-78
2022/07/09 05:55:54;;;;;;;;;;;;;;;16.83;66.88;102268.84;4996382;28;20328;-81
2022/07/09 05:58:20;;;;;;;;;;;;;;;16.85;66.11;102267.03;5004740;28;19935;-81
2022/07/09 06:00:45;;;;;;;;;;;;;;;16.86;66.60;102273.13;5006185;28;19921;-81
2022/07/09 06:03:10;;;;;;;;;;;;;;;16.89;66.12;102275.69;5020604;28;19975;-81
2022/07/09 06:05:36;;;;;;;;;;;;;;;16.96;65.94;102274.66;5006374;28;20385;-81
2022/07/09 06:08:01;;;;;;;;;;;;;;;16.93;65.63;102265.09;5001231;28;19928;-81
2022/07/09 06:10:26;;;;;;;;;;;;;;;16.90;65.99;102273.06;5008905;28;19929;-81
2022/07/09 06:12:52;;;;;;;;;;;;;;;16.90;66.35;102266.94;5006231;28;19929;-81
2022/07/09 06:15:17;;;;;;;;;;;;;;;16.93;67.04;102272.97;5005979;28;19931;-81
2022/07/09 06:17:42;;;;;;;;;;;;;;;16.95;66.55;102263.31;5008840;28;20012;-81
2022/07/09 06:20:09;;;;;;;;;;;;;;;17.01;66.40;102264.91;5007303;28;20009;-81
2022/07/09 06:22:34;;;;;;;;;;;;;;;17.08;66.22;102263.88;5008132;28;19925;-81
2022/07/09 06:25:00;;;;;;;;;;;;;;;17.10;67.25;102261.19;5005184;28;20399;-81
2022/07/09 06:27:25;;;;;;;;;;;;;;;17.05;67.32;102254.31;5010434;28;19932;-81
2022/07/09 06:29:50;;;;;;;;;;;;;;;17.08;67.38;102250.75;5011129;28;19983;-81
2022/07/09 06:32:16;;;;;;;;;;;;;;;17.02;67.84;102253.53;4997752;28;19925;-82
2022/07/09 06:34:41;;;;;;;;;;;;;;;17.06;67.73;102256.03;5006705;28;19929;-76
2022/07/09 06:37:06;;;;;;;;;;;;;;;17.11;67.71;102265.56;5004931;28;19931;-77
2022/07/09 06:39:44;;;;;;;;;;;;;;;17.05;68.01;102262.19;5006655;28;19925;-77
2022/07/09 06:42:10;;;;;;;;;;;;;;;17.15;67.68;102261.94;5000238;28;20512;-77
2022/07/09 06:44:36;;;;;;;;;;;;;;;17.17;67.51;102268.91;5008089;28;19929;-77
2022/07/09 06:47:02;;;;;;;;;;;;;;;17.19;67.96;102264.47;5008251;28;20311;-78
2022/07/09 06:49:27;;;;;;;;;;;;;;;17.24;67.59;102259.09;5007058;28;19926;-78
2022/07/09 06:51:53;;;;;;;;;;;;;;;17.25;67.83;102263.44;5009620;28;19917;-79
2022/07/09 06:54:18;;;;;;;;;;;;;;;17.28;67.91;102263.38;5003616;28;19996;-78
2022/07/09 06:56:43;;;;;;;;;;;;;;;17.29;67.70;102250.22;5008680;28;19965;-79
2022/07/09 06:59:09;;;;;;;;;;;;;;;17.40;67.62;102247.31;5001966;28;20385;-78
2022/07/09 07:01:34;;;;;;;;;;;;;;;17.46;67.83;102249.78;5008041;28;20396;-79
2022/07/09 07:03:59;;;;;;;;;;;;;;;17.47;67.91;102257.59;5007658;28;19925;-79
2022/07/09 07:06:25;;;;;;;;;;;;;;;17.54;67.61;102255.69;5005145;28;20219;-79
2022/07/09 07:08:50;;;;;;;;;;;;;;;17.55;67.54;102257.41;5004392;28;19933;-79
2022/07/09 07:11:18;;;;;;;;;;;;;;;17.48;67.70;102261.09;5003797;28;19991;-79
2022/07/09 07:13:44;;;;;;;;;;;;;;;17.52;67.61;102255.75;5014779;28;19927;-79
2022/07/09 07:16:09;;;;;;;;;;;;;;;17.51;67.40;102254.00;5004541;28;20320;-81
2022/07/09 07:18:34;;;;;;;;;;;;;;;17.55;68.05;102260.91;4980437;28;20016;-81
2022/07/09 07:21:00;;;;;;;;;;;;;;;17.55;67.89;102260.91;5000382;28;20696;-81
2022/07/09 07:23:25;;;;;;;;;;;;;;;17.48;67.76;102261.97;5000558;28;19929;-82
2022/07/09 07:25:50;;;;;;;;;;;;;;;17.56;67.63;102260.00;5003872;28;19929;-81
2022/07/09 07:28:16;;;;;;;;;;;;;;;17.54;67.67;102260.94;5005068;28;20355;-81
2022/07/09 07:30:41;;;;;;;;;;;;;;;17.57;67.59;102263.47;5006647;28;19925;-77
2022/07/09 07:33:07;;;;;;;;;;;;;;;17.57;67.45;102259.09;5005415;28;19922;-76
2022/07/09 07:35:32;;;;;;;;;;;;;;;17.56;66.78;102254.72;5004730;28;19956;-76
2022/07/09 07:37:59;;;;;;;;;;;;;;;17.62;66.81;102255.53;5004468;28;19926;-76
2022/07/09 07:40:24;;;;;;;;;;;;;;;17.66;67.15;102251.91;5004405;28;19925;-76
2022/07/09 07:42:50;;;;;;;;;;;;;;;17.72;67.22;102254.34;5002938;28;20447;-81
2022/07/09 07:45:15;;;;;;;;;;;;;;;17.72;66.39;102249.09;4986243;28;19964;-81
2022/07/09 07:47:40;;;;;;;;;;;;;;;17.71;65.68;102258.75;5003245;28;19948;-81
2022/07/09 07:50:06;;;;;;;;;;;;;;;17.72;64.82;102252.59;5003246;28;19964;-81
2022/07/09 07:52:32;;;;;;;;;;;;;;;17.71;63.91;102245.59;5003436;28;20028;-81
2022/07/09 07:54:57;;;;;;;;;;;;;;;17.74;64.55;102244.69;5003830;28;20664;-81
2022/07/09 07:57:22;;;;;;;;;;;;;;;17.75;64.43;102241.13;5001893;28;19930;-82
2022/07/09 07:59:48;;;;;;;;;;;;;;;17.76;63.95;102241.13;5003604;28;20016;-82
2022/07/09 08:02:13;;;;;;;;;;;;;;;17.84;64.12;102249.63;5003757;28;20542;-79
2022/07/09 08:04:38;;;;;;;;;;;;;;;17.89;63.98;102244.22;5004790;28;19925;-82
2022/07/09 08:07:04;;;;;;;;;;;;;;;17.84;63.90;102243.50;5004120;28;20393;-82
2022/07/09 08:09:30;;;;;;;;;;;;;;;17.86;63.15;102249.56;5003232;28;19917;-83
2022/07/09 08:11:55;;;;;;;;;;;;;;;17.89;63.04;102247.72;5002195;28;20024;-82
2022/07/09 08:14:20;;;;;;;;;;;;;;;17.87;64.08;102246.94;5004964;28;19944;-82
2022/07/09 08:16:46;;;;;;;;;;;;;;;17.88;63.67;102246.03;5004983;28;19929;-83
2022/07/09 08:19:13;;;;;;;;;;;;;;;17.90;63.91;102241.59;5007397;28;19983;-80
2022/07/09 08:21:39;;;;;;;;;;;;;;;17.89;64.04;102239.84;5007845;28;20419;-80
2022/07/09 08:24:06;;;;;;;;;;;;;;;17.95;63.75;102242.31;5004032;28;19961;-79
2022/07/09 08:26:31;;;;;;;;;;;;;;;18.01;63.39;102236.00;5006494;28;20384;-79
2022/07/09 08:28:56;;;;;;;;;;;;;;;17.94;63.93;102251.13;5003397;28;19933;-80
2022/07/09 08:31:22;;;;;;;;;;;;;;;18.09;62.73;102228.78;5005098;28;19929;-80
2022/07/09 08:33:48;;;;;;;;;;;;;;;18.11;62.63;102237.47;5002842;28;20669;-80
2022/07/09 08:36:13;;;;;;;;;;;;;;;18.11;62.82;102232.22;5007101;28;20001;-80
2022/07/09 08:38:39;;;;;;;;;;;;;;;18.16;62.91;102235.56;5003940;28;20419;-80
2022/07/09 08:41:05;;;;;;;;;;;;;;;18.12;63.52;102229.53;4999395;28;19965;-80
2022/07/09 08:43:34;;;;;;;;;;;;;;;18.11;62.98;102226.97;5009278;28;20681;-80
2022/07/09 08:46:00;;;;;;;;;;;;;;;18.13;62.20;102228.63;5004914;28;19979;-80
2022/07/09 08:48:26;;;;;;;;;;;;;;;18.18;61.65;102233.78;5013458;28;19925;-80
2022/07/09 08:50:51;;;;;;;;;;;;;;;18.25;60.92;102234.44;5006722;28;19952;-83
2022/07/09 08:53:18;;;;;;;;;;;;;;;18.18;61.83;102230.28;5005754;28;19922;-83
2022/07/09 08:55:44;;;;;;;;;;;;;;;18.25;61.68;102229.16;4999829;28;19936;-83
2022/07/09 08:58:11;;;;;;;;;;;;;;;18.32;60.48;102231.59;5002924;28;19921;-78
2022/07/09 09:00:36;;;;;;;;;;;;;;;18.33;59.86;102221.94;5012811;28;19917;-78
2022/07/09 09:03:02;;;;;;;;;;;;;;;18.39;59.44;102229.63;5007266;28;19925;-78
2022/07/09 09:05:27;;;;;;;;;;;;;;;18.38;59.78;102226.16;5009502;28;19956;-78
2022/07/09 09:07:52;;;;;;;;;;;;;;;18.38;60.58;102233.16;5010966;28;19925;-78
2022/07/09 09:10:22;;;;;;;;;;;;;;;18.48;60.22;102221.50;4998849;28;19929;-78
2022/07/09 09:12:47;;;;;;;;;;;;;;;18.52;59.50;102218.72;5007138;28;20408;-79
2022/07/09 09:15:16;;;;;;;;;;;;;;;18.53;58.95;102220.44;5003441;28;19910;-78
2022/07/09 09:17:45;;;;;;;;;;;;;;;18.47;59.61;102214.50;5003864;28;20414;-78
2022/07/09 09:20:11;;;;;;;;;;;;;;;18.43;64.01;102208.44;5005320;28;19964;-78
2022/07/09 09:22:43;;;;;;;;;;;;;;;18.41;63.46;102210.25;5005968;28;19929;-77
2022/07/09 09:25:14;;;;;;;;;;;;;;;18.38;63.78;102220.88;5004288;28;19921;-78
2022/07/09 09:27:39;;;;;;;;;;;;;;;18.41;63.20;102207.63;5007628;28;19918;-77
2022/07/09 09:30:09;;;;;;;;;;;;;;;18.39;62.74;102204.16;5005504;28;20446;-78
2022/07/09 09:32:34;;;;;;;;;;;;;;;18.41;64.97;102201.50;5004751;28;19932;-78
2022/07/09 09:35:02;;;;;;;;;;;;;;;18.41;64.65;102202.38;5005392;28;19921;-78
2022/07/09 09:37:29;;;;;;;;;;;;;;;18.37;64.92;102200.72;5001228;28;19929;-82
2022/07/09 09:39:55;;;;;;;;;;;;;;;18.50;63.34;102188.09;5003784;28;19921;-83
2022/07/09 09:42:23;;;;;;;;;;;;;;;18.44;63.50;102193.50;4988726;28;20328;-80
2022/07/09 09:44:50;;;;;;;;;;;;;;;18.45;62.57;102188.22;5008703;28;19925;-80
2022/07/09 09:47:18;;;;;;;;;;;;;;;18.43;64.58;102192.66;5010135;28;19968;-79
2022/07/09 09:49:46;;;;;;;;;;;;;;;18.54;62.33;102180.03;5007513;28;20681;-80
2022/07/09 09:52:11;;;;;;;;;;;;;;;18.59;61.26;102175.50;5006203;28;19987;-80
2022/07/09 09:54:38;;;;;;;;;;;;;;;18.58;60.55;102173.78;5010060;28;20380;-80
2022/07/09 09:57:07;;;;;;;;;;;;;;;18.59;60.99;102172.03;5022467;28;19932;-82
2022/07/09 09:59:39;;;;;;;;;;;;;;;18.71;62.00;102182.16;5003353;28;20279;-81
2022/07/09 10:02:11;;;;;;;;;;;;;;;18.62;59.81;102164.91;5005689;28;19932;-77
2022/07/09 10:04:37;;;;;;;;;;;;;;;18.74;59.54;102163.63;5011915;28;20323;-77
2022/07/09 10:07:06;;;;;;;;;;;;;;;18.70;60.93;102167.25;5004432;28;19925;-77
2022/07/09 10:09:32;;;;;;;;;;;;;;;18.78;61.32;102159.13;5005683;28;19924;-77
2022/07/09 10:11:58;;;;;;;;;;;;;;;18.72;60.74;102157.53;5008760;28;19961;-76
2022/07/09 10:14:23;;;;;;;;;;;;;;;18.76;59.03;102143.38;5008424;28;20003;-77
2022/07/09 10:16:49;;;;;;;;;;;;;;;18.80;59.90;102144.13;5006690;28;20064;-77
2022/07/09 10:19:28;;;;;;;;;;;;;;;19.02;57.11;102151.25;5005789;28;20388;-81
2022/07/09 10:21:55;;;;;;;;;;;;;;;18.86;57.76;102144.78;5000727;28;19917;-81
2022/07/09 10:24:33;;;;;;;;;;;;;;;18.82;59.42;102148.44;5003713;28;20339;-81
2022/07/09 10:27:08;;;;;;;;;;;;;;;18.91;56.78;102137.59;5002997;28;19937;-79
2022/07/09 10:29:34;;;;;;;;;;;;;;;18.79;58.06;102135.38;5005286;28;19991;-79
2022/07/09 10:32:01;;;;;;;;;;;;;;;18.95;57.86;102135.72;5000027;28;19933;-79
2022/07/09 10:34:29;;;;;;;;;;;;;;;18.87;58.04;102130.69;5003369;28;19928;-79
2022/07/09 10:36:58;;;;;;;;;;;;;;;19.21;57.32;102128.63;5001477;28;19918;-78
2022/07/09 10:39:24;;;;;;;;;;;;;;;19.24;56.66;102131.16;5006091;28;20545;-79
2022/07/09 10:42:09;;;;;;;;;;;;;;;19.18;57.22;102128.75;5010537;28;19932;-79
2022/07/09 10:44:40;;;;;;;;;;;;;;;19.19;57.26;102133.06;4999687;28;19986;-79
2022/07/09 10:47:05;;;;;;;;;;;;;;;18.96;58.60;102135.66;5004827;28;19929;-79
2022/07/09 10:49:30;;;;;;;;;;;;;;;19.20;57.14;102124.28;5005439;28;19926;-79
2022/07/09 10:51:57;;;;;;;;;;;;;;;19.16;56.91;102116.53;5007707;28;19921;-79
2022/07/09 10:54:23;;;;;;;;;;;;;;;19.16;56.92;102119.19;5002789;28;19922;-79
2022/07/09 10:56:48;;;;;;;;;;;;;;;19.34;56.58;102115.94;5012109;28;20059;-79
2022/07/09 10:59:20;;;;;;;;;;;;;;;19.23;56.67;102110.13;5000533;28;19922;-79
2022/07/09 11:01:45;;;;;;;;;;;;;;;19.31;56.84;102102.88;5000226;28;20304;-81
2022/07/09 11:04:13;;;;;;;;;;;;;;;19.34;56.63;102096.63;5008692;28;19921;-81
2022/07/09 11:06:48;;;;;;;;;;;;;;;19.18;58.52;102096.25;5006762;28;19925;-81
2022/07/09 11:09:14;;;;;;;;;;;;;;;19.28;56.59;102088.91;5012939;28;20297;-79
2022/07/09 11:11:42;;;;;;;;;;;;;;;19.36;55.35;102087.72;5005010;28;19928;-79
2022/07/09 11:14:07;;;;;;;;;;;;;;;19.06;57.78;102092.28;5007920;28;19953;-77
2022/07/09 11:16:32;;;;;;;;;;;;;;;19.28;56.08;102084.53;5006800;28;19979;-77
2022/07/09 11:18:58;;;;;;;;;;;;;;;19.38;54.75;102085.88;5006237;28;19921;-78
2022/07/09 11:21:24;;;;;;;;;;;;;;;19.45;55.01;102084.75;5007068;28;19954;-77
2022/07/09 11:23:49;;;;;;;;;;;;;;;19.55;54.79;102085.28;5002846;28;20028;-78
2022/07/09 11:26:15;;;;;;;;;;;;;;;19.58;54.10;102086.00;5019331;28;20480;-77
2022/07/09 11:28:40;;;;;;;;;;;;;;;19.39;56.10;102084.13;5004911;28;19926;-78
2022/07/09 11:31:05;;;;;;;;;;;;;;;19.57;54.80;102072.91;5000660;28;20020;-78
2022/07/09 11:36:16;;;;;;;;;;;;;;;19.61;55.29;102075.34;5004533;28;19970;-77
2022/07/09 11:38:51;;;;;;;;;;;;;;;19.72;54.94;102059.13;5015895;28;19965;-77
2022/07/09 11:41:17;;;;;;;;;;;;;;;19.79;53.93;102065.88;4994593;28;19930;-77
2022/07/09 11:43:48;;;;;;;;;;;;;;;19.58;54.57;102064.09;4979310;28;20352;-77
2022/07/09 11:46:20;;;;;;;;;;;;;;;19.73;53.15;102061.69;4990507;28;19926;-77
2022/07/09 11:48:52;;;;;;;;;;;;;;;19.69;53.55;102061.88;4998744;28;19925;-78
2022/07/09 11:51:46;;;;;;;;;;;;;;;19.74;54.25;102063.44;5004299;28;19917;-77
2022/07/09 11:54:11;;;;;;;;;;;;;;;19.92;53.15;102068.91;4997651;28;20757;-77
2022/07/09 11:56:41;;;;;;;;;;;;;;;19.82;53.90;102064.94;5006316;28;19918;-77
2022/07/09 11:59:06;;;;;;;;;;;;;;;19.72;53.84;102056.50;4996504;28;20015;-78
2022/07/09 12:01:31;;;;;;;;;;;;;;;19.77;53.50;102057.16;5007113;28;19980;-77
2022/07/09 12:03:57;;;;;;;;;;;;;;;19.68;54.28;102047.84;5000904;28;19932;-77
2022/07/09 12:06:22;;;;;;;;;;;;;;;19.56;54.82;102050.09;5005203;28;20432;-81
2022/07/09 12:08:58;;;;;;;;;;;;;;;19.63;53.55;102039.25;5005568;28;20004;-81
2022/07/09 12:11:26;;;;;;;;;;;;;;;19.61;54.22;102046.34;4989366;28;20692;-82
2022/07/09 12:13:51;;;;;;;;;;;;;;;19.65;53.52;102047.09;4987594;28;20004;-81
2022/07/09 12:16:17;;;;;;;;;;;;;;;19.64;53.67;102050.66;4986863;28;20076;-81
2022/07/09 12:18:42;;;;;;;;;;;;;;;19.63;53.80;102041.91;4966723;28;19919;-82
2022/07/09 12:21:07;;;;;;;;;;;;;;;19.65;53.73;102036.56;4983713;28;20469;-81
2022/07/09 12:23:33;;;;;;;;;;;;;;;19.65;53.86;102037.41;4984987;28;19918;-81
2022/07/09 12:25:58;;;;;;;;;;;;;;;19.82;53.42;102026.19;4986134;28;20013;-81
2022/07/09 12:28:23;;;;;;;;;;;;;;;19.72;53.49;102027.50;4982877;28;20019;-82
2022/07/09 12:30:49;;;;;;;;;;;;;;;19.64;54.55;102011.97;4979822;28;19933;-80
2022/07/09 12:33:15;;;;;;;;;;;;;;;19.41;55.64;102013.75;4986747;28;19926;-80